createdAt,value
2018-08-23T00:00:03.156Z,18.4
2018-08-23T00:15:02.521Z,18.3
2018-08-23T00:30:02.903Z,18.2
2018-08-23T00:45:03.225Z,18.2
2018-08-23T01:00:02.551Z,18.1
2018-08-23T01:15:02.963Z,18.1
2018-08-23T01:30:02.400Z,18.1
2018-08-23T01:45:02.732Z,18
2018-08-23T02:00:03.056Z,17.9
2018-08-23T02:15:02.445Z,17.9
2018-08-23T02:30:02.835Z,17.9
2018-08-23T02:45:03.184Z,17.8
2018-08-23T03:00:02.513Z,17.8
2018-08-23T03:15:02.817Z,17.7
2018-08-23T03:30:03.227Z,17.6
2018-08-23T03:45:02.563Z,17.6
2018-08-23T04:00:02.908Z,17.5
2018-08-23T04:15:03.241Z,17.4
2018-08-23T04:30:02.634Z,17.4
2018-08-23T04:45:02.977Z,17.3
2018-08-23T05:00:02.354Z,17.2
2018-08-23T05:15:02.671Z,17.2
2018-08-23T05:30:03.090Z,17.2
2018-08-23T05:45:02.419Z,17.1
2018-08-23T06:00:02.731Z,17.1
2018-08-23T06:15:03.072Z,17.1
2018-08-23T06:30:02.505Z,17
2018-08-23T06:45:02.835Z,17
2018-08-23T07:00:03.187Z,16.9
2018-08-23T07:15:02.489Z,16.9
2018-08-23T07:30:03.109Z,16.9
2018-08-23T07:45:02.553Z,16.8
2018-08-23T08:00:02.914Z,16.8
2018-08-23T08:15:03.430Z,16.8
2018-08-23T08:30:02.930Z,16.8
2018-08-23T08:45:03.228Z,16.8
2018-08-23T09:00:02.597Z,16.8
2018-08-23T09:15:03.000Z,16.8
2018-08-23T09:30:02.398Z,16.7
2018-08-23T09:45:02.725Z,16.7
2018-08-23T10:00:03.072Z,16.7
2018-08-23T10:15:02.390Z,16.8
2018-08-23T10:30:02.792Z,16.8
2018-08-23T10:45:03.124Z,16.8
2018-08-23T11:00:02.408Z,16.9
2018-08-23T11:15:02.816Z,16.9
2018-08-23T11:30:03.350Z,17
2018-08-23T11:45:02.766Z,17.1
2018-08-23T12:00:03.097Z,17.1
2018-08-23T12:15:03.266Z,17.2
2018-08-23T12:30:02.710Z,17.3
2018-08-23T12:45:03.009Z,17.4
2018-08-23T13:00:02.308Z,17.5
2018-08-23T13:15:02.660Z,17.6
2018-08-23T13:30:03.209Z,17.6
2018-08-23T13:45:02.583Z,17.7
2018-08-23T14:00:02.918Z,17.8
2018-08-23T14:15:03.214Z,17.8
2018-08-23T14:30:02.634Z,17.8
2018-08-23T14:45:02.932Z,17.8
2018-08-23T15:00:03.244Z,17.8
2018-08-23T15:15:02.776Z,17.8
2018-08-23T15:30:03.214Z,17.8
2018-08-23T15:45:02.537Z,17.8
2018-08-23T16:00:02.825Z,17.8
2018-08-23T16:15:03.200Z,17.8
2018-08-23T16:30:02.632Z,17.8
2018-08-23T16:45:02.919Z,17.8
2018-08-23T17:00:03.220Z,17.8
2018-08-23T17:15:02.597Z,17.8
2018-08-23T17:30:03.015Z,17.8
2018-08-23T17:45:02.323Z,17.8
2018-08-23T18:00:02.625Z,17.8
2018-08-23T18:15:02.932Z,17.8
2018-08-23T18:30:02.317Z,17.8
2018-08-23T18:45:02.647Z,17.8
2018-08-23T19:00:03.267Z,17.8
2018-08-23T19:15:02.693Z,17.8
2018-08-23T19:30:03.076Z,17.8
2018-08-23T19:45:02.380Z,17.8
2018-08-23T20:00:02.685Z,17.8
2018-08-23T20:15:03.008Z,17.8
2018-08-23T20:30:02.418Z,17.8
2018-08-23T20:45:02.735Z,17.8
2018-08-23T21:00:03.084Z,17.8
2018-08-23T21:15:02.413Z,17.8
2018-08-23T21:30:02.819Z,17.8
2018-08-23T21:45:03.121Z,17.8
2018-08-23T22:00:02.432Z,17.7
2018-08-23T22:15:02.714Z,17.7
2018-08-23T22:30:03.121Z,17.6
2018-08-23T22:45:02.417Z,17.6
2018-08-23T23:00:02.812Z,17.6
2018-08-23T23:15:03.114Z,17.6
2018-08-23T23:30:02.516Z,17.5
2018-08-23T23:45:02.811Z,17.5
